Time;durP1;ratioP1;P1;durP2;ratioP2;P2;SDS_P1;SDS_P2;PMS_P1;PMS_P2;Temp;Humidity;BMP_temperature;BMP_pressure;BME280_temperature;BME280_humidity;BME280_pressure;Samples;Min_cycle;Max_cycle;Signal;HPM_P1;HPM_P2
2023/05/20 00:01:38;;;;;;;7.00;3.63;;;11.90;99.90;;;;;;5129433;28;20264;-69
2023/05/20 00:04:04;;;;;;;6.30;4.60;;;11.90;99.90;;;;;;5129606;28;20293;-69
2023/05/20 00:06:31;;;;;;;4.80;3.90;;;11.90;99.90;;;;;;5110684;28;20219;-70
2023/05/20 00:08:58;;;;;;;5.43;3.97;;;11.90;99.90;;;;;;5110872;28;20194;-70
2023/05/20 00:11:25;;;;;;;6.47;3.33;;;11.80;99.90;;;;;;5129276;28;20422;-69
2023/05/20 00:13:50;;;;;;;4.57;3.90;;;11.80;99.90;;;;;;5110962;28;20457;-70
2023/05/20 00:16:16;;;;;;;5.67;3.63;;;11.80;99.90;;;;;;5110930;28;20444;-70
2023/05/20 00:18:41;;;;;;;6.60;4.17;;;11.80;99.90;;;;;;5129475;28;20178;-70
2023/05/20 00:21:07;;;;;;;6.43;3.43;;;11.80;99.90;;;;;;5129094;28;20652;-70
2023/05/20 00:23:33;;;;;;;8.13;4.23;;;11.80;99.90;;;;;;5110823;28;20181;-69
2023/05/20 00:25:58;;;;;;;10.93;4.10;;;11.80;99.90;;;;;;5110820;28;20774;-70
2023/05/20 00:28:24;;;;;;;8.13;4.30;;;11.80;99.90;;;;;;5129262;28;20191;-69
2023/05/20 00:30:49;;;;;;;4.53;3.50;;;11.80;99.90;;;;;;5111393;28;20183;-69
2023/05/20 00:33:15;;;;;;;13.33;4.13;;;11.80;99.90;;;;;;5094618;28;20220;-69
2023/05/20 00:35:40;;;;;;;7.30;4.70;;;11.80;99.90;;;;;;5129800;27;20260;-69
2023/05/20 00:38:06;;;;;;;6.43;4.00;;;11.70;99.90;;;;;;5094460;28;20184;-69
2023/05/20 00:40:31;;;;;;;7.73;4.00;;;11.80;99.90;;;;;;5129602;28;20969;-69
2023/05/20 00:42:57;;;;;;;14.00;4.97;;;11.70;99.90;;;;;;5129565;28;20210;-69
2023/05/20 00:45:23;;;;;;;5.83;4.80;;;11.70;99.90;;;;;;5129964;28;20186;-69
2023/05/20 00:47:49;;;;;;;12.70;4.07;;;11.60;99.90;;;;;;5111212;28;20210;-69
2023/05/20 00:50:16;;;;;;;7.87;4.93;;;11.70;99.90;;;;;;5111086;28;20747;-69
2023/05/20 00:52:44;;;;;;;5.13;4.17;;;11.70;99.90;;;;;;5129692;28;20195;-69
2023/05/20 00:55:09;;;;;;;12.57;4.60;;;11.70;99.90;;;;;;5129347;27;20829;-69
2023/05/20 00:57:35;;;;;;;5.93;4.30;;;11.70;99.90;;;;;;5129327;27;20439;-69
2023/05/20 01:00:02;;;;;;;6.30;4.50;;;11.60;99.90;;;;;;5129617;28;20186;-69
2023/05/20 01:02:29;;;;;;;6.37;4.57;;;11.70;99.90;;;;;;5129335;28;20180;-70
2023/05/20 01:04:55;;;;;;;7.20;4.70;;;11.60;99.90;;;;;;5129841;27;20474;-69
2023/05/20 01:07:21;;;;;;;11.50;5.30;;;11.50;99.90;;;;;;5133217;27;20496;-70
2023/05/20 01:09:47;;;;;;;8.33;4.23;;;11.50;99.90;;;;;;5132783;27;20413;-69
2023/05/20 01:12:21;;;;;;;5.00;4.50;;;11.50;99.90;;;;;;5114257;27;20192;-69
2023/05/20 01:15:02;;;;;;;6.17;4.70;;;11.50;99.90;;;;;;5132690;27;20987;-69
2023/05/20 01:17:31;;;;;;;6.10;4.40;;;11.50;99.90;;;;;;5132649;27;20432;-68
2023/05/20 01:19:58;;;;;;;5.60;4.80;;;11.60;99.90;;;;;;5132747;27;20413;-68
2023/05/20 01:22:28;;;;;;;7.67;4.77;;;11.50;99.90;;;;;;5132973;27;20407;-68
2023/05/20 01:24:54;;;;;;;5.70;5.10;;;11.50;99.90;;;;;;5114306;27;20934;-68
2023/05/20 01:27:21;;;;;;;6.60;5.10;;;11.50;99.90;;;;;;5132954;27;20933;-68
2023/05/20 01:29:51;;;;;;;8.83;4.80;;;11.40;99.90;;;;;;5132980;27;20817;-68
2023/05/20 01:32:25;;;;;;;7.10;5.30;;;11.40;99.90;;;;;;5132806;27;20421;-69
2023/05/20 01:34:52;;;;;;;10.63;4.43;;;11.40;99.90;;;;;;5132606;27;20456;-68
2023/05/20 01:37:19;;;;;;;5.90;4.53;;;11.30;99.90;;;;;;5132775;27;20866;-68
2023/05/20 01:39:48;;;;;;;6.87;5.40;;;11.30;99.90;;;;;;5132881;27;20422;-68
2023/05/20 01:42:15;;;;;;;7.80;5.47;;;11.20;99.90;;;;;;5132576;27;20445;-69
2023/05/20 01:44:41;;;;;;;16.83;6.17;;;11.10;99.90;;;;;;5132594;27;20421;-69
2023/05/20 01:47:06;;;;;;;9.60;6.03;;;11.10;99.90;;;;;;5132549;27;20485;-69
2023/05/20 01:49:32;;;;;;;9.80;6.53;;;11.00;99.90;;;;;;5132534;27;20424;-69
2023/05/20 01:51:58;;;;;;;9.07;6.13;;;10.90;99.90;;;;;;5132233;27;20889;-69
2023/05/20 01:54:24;;;;;;;9.90;6.87;;;10.80;99.90;;;;;;5132209;27;20295;-69
2023/05/20 01:56:49;;;;;;;13.50;7.13;;;10.70;99.90;;;;;;5096216;27;20443;-69
2023/05/20 01:59:15;;;;;;;13.63;7.83;;;10.80;99.90;;;;;;5131917;27;20186;-69
2023/05/20 02:01:41;;;;;;;9.90;7.33;;;10.70;99.90;;;;;;5131600;27;20208;-69
2023/05/20 02:04:06;;;;;;;12.93;8.10;;;10.60;99.90;;;;;;5131757;27;20204;-69
2023/05/20 02:06:32;;;;;;;9.10;6.27;;;10.50;99.90;;;;;;5132053;27;20205;-69
2023/05/20 02:08:57;;;;;;;10.57;7.03;;;10.50;99.90;;;;;;5132105;27;20195;-69
2023/05/20 02:11:23;;;;;;;10.50;6.70;;;10.50;99.90;;;;;;5113484;27;20182;-69
2023/05/20 02:13:50;;;;;;;13.57;6.00;;;10.50;99.90;;;;;;5131978;27;20250;-69
2023/05/20 02:16:16;;;;;;;8.13;6.70;;;10.40;99.90;;;;;;5131619;27;20689;-69
2023/05/20 02:18:41;;;;;;;13.60;8.17;;;10.40;99.90;;;;;;5131845;27;20416;-69
2023/05/20 02:21:07;;;;;;;9.60;8.30;;;10.10;99.90;;;;;;5131677;27;20177;-69
2023/05/20 02:23:33;;;;;;;11.73;8.83;;;9.90;99.90;;;;;;5112961;27;20209;-69
2023/05/20 02:25:59;;;;;;;18.53;8.47;;;9.80;99.90;;;;;;5130960;27;20211;-69
2023/05/20 02:28:24;;;;;;;17.00;8.77;;;9.70;99.90;;;;;;5131058;27;20412;-69
2023/05/20 02:30:50;;;;;;;13.50;7.53;;;9.70;99.90;;;;;;5130846;27;20178;-69
2023/05/20 02:33:16;;;;;;;13.00;8.43;;;9.70;99.90;;;;;;5130978;27;20180;-69
2023/05/20 02:35:42;;;;;;;11.30;7.13;;;9.70;99.90;;;;;;5130953;27;20465;-69
2023/05/20 02:38:07;;;;;;;10.97;6.80;;;9.80;99.90;;;;;;5130942;27;20418;-69
2023/05/20 02:40:33;;;;;;;14.80;7.60;;;9.80;99.90;;;;;;5112086;27;20187;-69
2023/05/20 02:43:02;;;;;;;7.10;6.40;;;9.80;99.90;;;;;;5112034;27;20200;-69
2023/05/20 02:45:30;;;;;;;10.40;7.50;;;9.80;99.90;;;;;;5130653;27;20938;-69
2023/05/20 02:47:56;;;;;;;9.60;7.00;;;9.70;99.90;;;;;;5130616;27;20537;-69
2023/05/20 02:50:22;;;;;;;9.90;7.00;;;9.70;99.90;;;;;;5130553;27;20491;-69
2023/05/20 02:52:47;;;;;;;10.67;7.37;;;9.80;99.90;;;;;;5112024;27;20184;-69
2023/05/20 02:55:13;;;;;;;10.03;7.00;;;9.80;99.90;;;;;;5130531;27;20828;-70
2023/05/20 02:57:39;;;;;;;11.73;6.53;;;9.80;99.90;;;;;;5130439;27;20202;-69
2023/05/20 03:00:12;;;;;;;9.80;7.63;;;9.80;99.90;;;;;;5111969;27;20415;-69
2023/05/20 03:02:38;;;;;;;10.50;7.50;;;9.70;99.90;;;;;;5130835;27;20174;-69
2023/05/20 03:05:04;;;;;;;10.73;8.07;;;9.60;99.90;;;;;;5112470;27;20498;-69
2023/05/20 03:07:30;;;;;;;16.90;7.97;;;9.60;99.90;;;;;;5130139;27;20228;-69
2023/05/20 03:09:57;;;;;;;12.07;7.50;;;9.60;99.90;;;;;;5130280;27;20964;-69
2023/05/20 03:12:25;;;;;;;14.40;8.60;;;9.60;99.90;;;;;;5130266;27;20426;-69
2023/05/20 03:14:54;;;;;;;12.03;8.80;;;9.60;99.90;;;;;;5130181;27;20472;-69
2023/05/20 03:17:20;;;;;;;11.90;8.30;;;9.50;99.90;;;;;;5130154;27;20423;-69
2023/05/20 03:19:46;;;;;;;13.53;8.10;;;9.40;99.90;;;;;;5130447;27;20978;-69
2023/05/20 03:22:11;;;;;;;15.00;8.77;;;9.40;99.90;;;;;;5130423;27;20407;-69
2023/05/20 03:24:37;;;;;;;14.90;8.43;;;9.40;99.90;;;;;;5130381;27;20565;-69
2023/05/20 03:27:03;;;;;;;14.70;9.03;;;9.40;99.90;;;;;;5130078;27;20197;-69
2023/05/20 03:29:28;;;;;;;11.00;7.93;;;9.50;99.90;;;;;;5111717;27;20191;-69
2023/05/20 03:31:54;;;;;;;22.97;10.37;;;9.50;99.90;;;;;;5130557;27;20498;-69
2023/05/20 03:34:20;;;;;;;23.00;7.70;;;9.40;99.90;;;;;;5130731;27;20701;-69
2023/05/20 03:36:45;;;;;;;11.27;8.27;;;9.50;99.90;;;;;;5112231;27;20240;-69
2023/05/20 03:39:11;;;;;;;9.13;7.83;;;9.50;99.90;;;;;;5130834;27;20174;-70
2023/05/20 03:41:36;;;;;;;15.50;8.33;;;9.50;99.90;;;;;;5130611;27;20729;-69
2023/05/20 03:44:02;;;;;;;17.87;7.80;;;9.50;99.90;;;;;;5095286;27;20260;-69
2023/05/20 03:46:29;;;;;;;12.00;8.43;;;9.30;99.90;;;;;;5130177;27;20295;-69
2023/05/20 03:48:55;;;;;;;14.00;7.53;;;9.40;99.90;;;;;;5130459;27;20233;-69
2023/05/20 03:51:21;;;;;;;11.73;7.30;;;9.50;99.90;;;;;;5111692;27;20419;-70
2023/05/20 03:53:47;;;;;;;11.13;7.33;;;9.50;99.90;;;;;;5130192;27;20262;-69
2023/05/20 03:56:12;;;;;;;12.77;7.20;;;9.50;99.90;;;;;;5129994;27;20525;-69
2023/05/20 03:58:38;;;;;;;15.07;7.90;;;9.50;99.90;;;;;;5130118;27;20203;-69
2023/05/20 04:01:04;;;;;;;12.00;8.30;;;9.40;99.90;;;;;;5111799;28;20649;-69
2023/05/20 04:03:30;;;;;;;12.87;8.47;;;9.50;99.90;;;;;;5130346;28;20179;-69
2023/05/20 04:05:55;;;;;;;13.83;8.63;;;9.50;99.90;;;;;;5130277;27;20205;-69
2023/05/20 04:08:24;;;;;;;12.07;8.20;;;9.50;99.90;;;;;;5111712;28;20427;-69
2023/05/20 04:10:54;;;;;;;10.87;7.60;;;9.60;99.90;;;;;;5130209;28;20261;-69
2023/05/20 04:13:20;;;;;;;14.20;7.53;;;9.70;99.90;;;;;;5130229;28;20792;-69
2023/05/20 04:15:46;;;;;;;14.70;8.43;;;9.80;99.90;;;;;;5094713;27;20469;-70
2023/05/20 04:18:12;;;;;;;12.60;8.30;;;9.90;99.90;;;;;;5112241;28;20956;-70
2023/05/20 04:20:40;;;;;;;11.10;7.33;;;10.00;99.90;;;;;;5130703;28;20416;-70
2023/05/20 04:23:05;;;;;;;9.13;7.13;;;10.00;99.90;;;;;;5112681;28;20444;-69
2023/05/20 04:25:32;;;;;;;10.77;7.50;;;10.00;99.90;;;;;;5130757;27;20922;-70
2023/05/20 04:27:58;;;;;;;14.00;7.53;;;10.10;99.90;;;;;;5130627;28;20184;-69
2023/05/20 04:30:24;;;;;;;12.83;8.13;;;10.20;99.90;;;;;;5111899;28;20419;-69
2023/05/20 04:32:50;;;;;;;12.30;8.07;;;10.30;99.90;;;;;;5130079;28;20417;-69
2023/05/20 04:35:16;;;;;;;11.80;8.00;;;10.40;99.90;;;;;;5129989;28;20501;-70
2023/05/20 04:37:43;;;;;;;13.50;7.67;;;10.40;99.90;;;;;;5130199;27;20481;-69
2023/05/20 04:40:11;;;;;;;10.80;7.40;;;10.40;99.90;;;;;;5113894;27;20457;-69
2023/05/20 04:42:37;;;;;;;8.90;7.17;;;10.50;99.90;;;;;;5133577;27;20436;-69
2023/05/20 04:45:04;;;;;;;9.17;7.90;;;10.50;99.90;;;;;;5133683;27;20658;-69
2023/05/20 04:47:31;;;;;;;11.80;7.73;;;10.50;99.90;;;;;;5133578;27;20796;-70
2023/05/20 04:49:56;;;;;;;15.87;7.73;;;10.60;99.90;;;;;;5115225;27;20813;-69
2023/05/20 04:52:25;;;;;;;11.17;7.60;;;10.60;99.90;;;;;;5133078;27;20422;-68
2023/05/20 04:54:51;;;;;;;16.20;9.60;;;10.70;99.90;;;;;;5132926;27;20203;-68
2023/05/20 04:57:19;;;;;;;12.90;8.10;;;10.70;99.90;;;;;;5132844;27;20432;-69
2023/05/20 04:59:46;;;;;;;12.27;8.87;;;10.70;99.90;;;;;;5097483;27;20439;-69
2023/05/20 05:02:11;;;;;;;13.17;8.17;;;10.80;99.90;;;;;;5132769;27;20534;-68
2023/05/20 05:04:37;;;;;;;10.80;8.70;;;10.80;99.90;;;;;;5132838;27;20563;-69
2023/05/20 05:07:04;;;;;;;13.40;8.90;;;10.90;99.90;;;;;;5132681;27;20264;-69
2023/05/20 05:09:29;;;;;;;9.80;8.73;;;11.00;99.90;;;;;;5132808;27;20180;-68
2023/05/20 05:11:55;;;;;;;12.13;9.10;;;11.00;99.90;;;;;;5132729;27;20429;-68
2023/05/20 05:14:22;;;;;;;9.80;8.47;;;11.10;99.90;;;;;;5132908;27;20208;-70
2023/05/20 05:16:48;;;;;;;10.60;7.37;;;11.10;99.90;;;;;;5132929;27;20683;-69
2023/05/20 05:19:14;;;;;;;9.03;8.00;;;11.20;99.90;;;;;;5132999;27;20420;-69
2023/05/20 05:21:39;;;;;;;15.00;7.60;;;11.30;99.90;;;;;;5132797;27;20409;-69
2023/05/20 05:24:05;;;;;;;12.40;8.30;;;11.30;99.90;;;;;;5133179;27;20652;-69
2023/05/20 05:26:31;;;;;;;9.73;7.53;;;11.30;99.90;;;;;;5133126;27;20199;-69
2023/05/20 05:28:56;;;;;;;11.50;7.60;;;11.30;99.90;;;;;;5132943;27;20833;-69
2023/05/20 05:31:22;;;;;;;10.80;8.37;;;11.40;99.90;;;;;;5133024;27;20184;-69
2023/05/20 05:33:47;;;;;;;13.00;9.43;;;11.50;99.90;;;;;;5114477;27;20181;-69
2023/05/20 05:36:14;;;;;;;12.73;8.87;;;11.50;99.90;;;;;;5132842;27;20198;-68
2023/05/20 05:38:39;;;;;;;9.77;7.70;;;11.50;99.90;;;;;;5132734;27;20241;-68
2023/05/20 05:41:05;;;;;;;11.53;7.40;;;11.60;99.90;;;;;;5096491;27;20954;-68
2023/05/20 05:43:30;;;;;;;10.73;7.27;;;11.60;99.90;;;;;;5131855;27;20188;-68
2023/05/20 05:45:56;;;;;;;8.67;6.70;;;11.70;99.90;;;;;;5131666;27;20294;-68
2023/05/20 05:48:22;;;;;;;6.90;6.20;;;11.70;99.90;;;;;;5113371;27;20182;-69
2023/05/20 05:50:47;;;;;;;8.30;5.93;;;11.80;99.90;;;;;;5131343;27;21027;-68
2023/05/20 05:53:13;;;;;;;8.47;6.70;;;11.90;99.90;;;;;;5131800;27;20555;-67
2023/05/20 05:55:38;;;;;;;11.43;8.13;;;11.90;99.90;;;;;;5112975;27;20237;-68
2023/05/20 05:58:04;;;;;;;12.40;8.30;;;12.00;99.90;;;;;;5131641;27;20183;-68
2023/05/20 06:00:30;;;;;;;10.60;9.07;;;12.00;99.90;;;;;;5131470;27;20186;-68
2023/05/20 06:02:55;;;;;;;14.27;9.37;;;12.10;99.90;;;;;;5131525;27;20195;-67
2023/05/20 06:05:21;;;;;;;12.80;9.30;;;12.20;99.90;;;;;;5113210;27;20195;-68
2023/05/20 06:07:46;;;;;;;14.57;9.60;;;12.20;99.90;;;;;;5131587;27;20293;-68
2023/05/20 06:10:12;;;;;;;15.53;8.53;;;12.10;99.90;;;;;;5131519;27;20673;-68
2023/05/20 06:12:38;;;;;;;10.53;7.50;;;12.30;99.90;;;;;;5131565;27;20178;-68
2023/05/20 06:15:04;;;;;;;10.77;7.27;;;12.40;99.90;;;;;;5131364;27;20260;-68
2023/05/20 06:17:29;;;;;;;11.57;8.33;;;12.60;99.90;;;;;;5131459;27;20212;-68
2023/05/20 06:19:55;;;;;;;10.43;6.60;;;12.70;99.90;;;;;;5112780;27;20419;-67
2023/05/20 06:22:20;;;;;;;7.70;5.80;;;12.80;99.90;;;;;;5131183;27;20288;-67
2023/05/20 06:24:46;;;;;;;7.30;5.50;;;13.00;99.90;;;;;;5131077;27;20187;-68
2023/05/20 06:27:12;;;;;;;9.07;5.63;;;13.00;99.90;;;;;;5131120;27;20723;-67
2023/05/20 06:29:37;;;;;;;6.40;5.80;;;13.10;99.90;;;;;;5130930;27;20236;-69
2023/05/20 06:32:03;;;;;;;11.47;7.63;;;13.20;99.90;;;;;;5131054;27;21007;-68
2023/05/20 06:34:28;;;;;;;7.20;6.50;;;13.20;99.90;;;;;;5130778;27;20230;-68
2023/05/20 06:36:54;;;;;;;9.13;7.00;;;13.30;99.90;;;;;;5130758;27;20216;-68
2023/05/20 06:39:20;;;;;;;9.20;6.63;;;13.40;99.90;;;;;;5130903;27;20677;-68
2023/05/20 06:41:46;;;;;;;12.23;7.27;;;13.40;99.90;;;;;;5130599;27;20437;-68
2023/05/20 06:44:12;;;;;;;10.83;7.10;;;13.60;99.90;;;;;;5131103;27;20188;-68
2023/05/20 06:46:37;;;;;;;10.13;6.17;;;13.70;99.90;;;;;;5112077;27;20231;-68
2023/05/20 06:49:03;;;;;;;7.07;5.67;;;13.80;99.90;;;;;;5130589;27;20195;-68
2023/05/20 06:51:29;;;;;;;6.70;6.10;;;14.10;99.90;;;;;;5130411;27;20196;-68
2023/05/20 06:53:55;;;;;;;7.13;6.17;;;14.20;99.90;;;;;;5130597;27;20185;-68
2023/05/20 06:56:21;;;;;;;6.40;5.40;;;14.20;99.90;;;;;;5130484;27;20480;-68
2023/05/20 06:58:46;;;;;;;9.93;6.30;;;14.40;99.90;;;;;;5111432;27;20541;-68
2023/05/20 07:01:12;;;;;;;11.70;6.00;;;14.50;99.90;;;;;;5130321;27;20421;-68
2023/05/20 07:03:37;;;;;;;12.60;6.47;;;14.60;99.90;;;;;;5129361;27;20191;-68
2023/05/20 07:06:03;;;;;;;7.83;6.37;;;14.60;99.90;;;;;;5130094;27;20219;-68
2023/05/20 07:08:29;;;;;;;9.70;5.77;;;14.60;99.90;;;;;;5130179;27;20188;-68
2023/05/20 07:10:55;;;;;;;6.43;5.80;;;14.70;99.90;;;;;;5130124;27;20188;-68
2023/05/20 07:13:24;;;;;;;12.80;6.57;;;14.70;99.90;;;;;;5111732;27;20556;-68
2023/05/20 07:15:50;;;;;;;8.70;6.10;;;14.80;99.90;;;;;;5130260;27;20469;-69
2023/05/20 07:18:16;;;;;;;8.67;6.43;;;14.80;99.90;;;;;;5130043;27;20785;-68
2023/05/20 07:20:43;;;;;;;7.90;6.33;;;14.80;99.90;;;;;;5128814;27;20193;-68
2023/05/20 07:23:08;;;;;;;8.03;6.10;;;14.80;99.90;;;;;;5129002;27;20620;-68
2023/05/20 07:25:34;;;;;;;11.60;7.10;;;14.90;99.90;;;;;;5129051;27;20454;-69
2023/05/20 07:28:00;;;;;;;7.23;6.53;;;14.80;99.90;;;;;;5109972;27;20237;-68
2023/05/20 07:30:26;;;;;;;9.40;6.63;;;14.90;99.90;;;;;;5129101;27;20193;-67
2023/05/20 07:32:51;;;;;;;13.33;6.30;;;15.00;99.90;;;;;;5128966;27;20653;-68
2023/05/20 07:35:17;;;;;;;8.87;7.40;;;15.00;99.90;;;;;;5128935;27;20474;-68
2023/05/20 07:37:43;;;;;;;7.30;6.27;;;15.20;99.90;;;;;;5128651;27;20209;-68
2023/05/20 07:40:09;;;;;;;12.23;7.20;;;15.30;99.90;;;;;;5128680;27;20186;-68
2023/05/20 07:42:35;;;;;;;7.57;6.50;;;15.40;99.90;;;;;;5128691;27;20198;-69
2023/05/20 07:45:00;;;;;;;8.80;6.40;;;15.50;99.90;;;;;;5128755;27;20482;-69
2023/05/20 07:47:26;;;;;;;8.47;6.43;;;15.60;99.90;;;;;;5128632;27;20208;-69
2023/05/20 07:49:52;;;;;;;8.47;7.20;;;15.60;99.90;;;;;;5109987;27;20692;-69
2023/05/20 07:52:17;;;;;;;10.13;7.00;;;15.60;99.90;;;;;;5128975;27;20184;-68
2023/05/20 07:54:43;;;;;;;9.43;6.80;;;15.80;99.90;;;;;;5128706;27;20217;-68
2023/05/20 07:57:08;;;;;;;7.10;6.30;;;15.80;99.90;;;;;;5128992;27;20201;-69
2023/05/20 07:59:34;;;;;;;7.57;6.17;;;15.90;99.90;;;;;;5109861;27;20975;-68
2023/05/20 08:02:00;;;;;;;7.80;6.90;;;16.00;99.90;;;;;;5128639;28;20290;-69
2023/05/20 08:04:25;;;;;;;9.13;6.63;;;16.10;99.90;;;;;;5110161;28;20187;-68
2023/05/20 08:06:52;;;;;;;9.13;6.63;;;16.00;99.90;;;;;;5109840;28;20198;-68
2023/05/20 08:09:18;;;;;;;13.47;7.30;;;16.00;99.90;;;;;;5128151;28;20523;-68
2023/05/20 08:11:44;;;;;;;7.80;7.00;;;16.00;99.90;;;;;;5128140;28;20431;-68
2023/05/20 08:14:10;;;;;;;8.10;6.93;;;15.90;99.90;;;;;;5129026;27;20463;-68
2023/05/20 08:16:36;;;;;;;11.43;7.10;;;16.00;99.90;;;;;;5132858;27;20203;-68
2023/05/20 08:19:02;;;;;;;7.30;6.27;;;16.20;99.90;;;;;;5132215;27;20494;-68
2023/05/20 08:21:27;;;;;;;8.00;7.20;;;16.30;99.90;;;;;;5132114;27;20489;-68
2023/05/20 08:23:53;;;;;;;7.73;6.93;;;16.40;99.90;;;;;;5131931;27;20174;-69
2023/05/20 08:26:19;;;;;;;9.43;7.30;;;16.50;99.90;;;;;;5132491;27;20621;-69
2023/05/20 08:28:45;;;;;;;10.10;6.77;;;16.60;99.90;;;;;;5131897;27;20243;-69
2023/05/20 08:31:11;;;;;;;7.40;6.17;;;16.70;99.90;;;;;;5113090;27;20228;-69
2023/05/20 08:33:36;;;;;;;7.10;5.97;;;16.90;99.90;;;;;;5131835;27;20438;-69
2023/05/20 08:36:02;;;;;;;10.40;6.20;;;17.10;99.90;;;;;;5112912;27;20229;-69
2023/05/20 08:38:28;;;;;;;6.90;5.93;;;17.40;99.90;;;;;;5113146;27;20595;-69
2023/05/20 08:40:55;;;;;;;7.97;6.20;;;17.60;99.90;;;;;;5132164;27;20271;-68
2023/05/20 08:43:25;;;;;;;8.50;6.00;;;17.80;99.90;;;;;;5132057;27;20186;-68
2023/05/20 08:45:51;;;;;;;7.87;6.00;;;17.90;99.90;;;;;;5131669;27;20878;-68
2023/05/20 08:48:18;;;;;;;6.27;5.60;;;17.70;99.90;;;;;;5131994;27;20421;-68
2023/05/20 08:50:50;;;;;;;7.20;6.43;;;17.70;99.90;;;;;;5132275;27;20423;-68
2023/05/20 08:53:16;;;;;;;8.20;5.67;;;17.80;99.90;;;;;;5132207;27;20424;-69
2023/05/20 08:55:45;;;;;;;6.07;5.50;;;17.80;99.90;;;;;;5132164;27;20512;-69
2023/05/20 08:58:14;;;;;;;6.90;5.83;;;17.70;99.90;;;;;;5132176;27;20903;-68
2023/05/20 09:00:40;;;;;;;7.00;6.30;;;17.70;99.90;;;;;;5132214;27;20455;-68
2023/05/20 09:03:06;;;;;;;6.87;4.97;;;17.60;99.90;;;;;;5113667;27;20958;-68
2023/05/20 09:05:33;;;;;;;6.50;5.80;;;17.60;99.90;;;;;;5132037;27;20417;-68
2023/05/20 09:08:10;;;;;;;7.17;5.77;;;17.50;99.90;;;;;;5132156;27;20623;-69
2023/05/20 09:10:38;;;;;;;6.90;5.80;;;17.60;99.90;;;;;;5132068;27;20413;-69
2023/05/20 09:13:05;;;;;;;10.00;7.83;;;17.60;99.90;;;;;;5131872;27;20443;-69
2023/05/20 09:15:31;;;;;;;7.67;6.83;;;17.80;99.90;;;;;;5131448;27;21365;-69
2023/05/20 09:18:05;;;;;;;10.13;6.93;;;17.70;99.90;;;;;;5131672;27;20429;-68
2023/05/20 09:20:36;;;;;;;10.63;7.37;;;18.40;99.90;;;;;;5131303;27;20498;-69
2023/05/20 09:23:06;;;;;;;10.33;7.37;;;18.70;99.90;;;;;;5131382;27;20463;-69
2023/05/20 09:25:32;;;;;;;8.20;6.40;;;18.50;99.90;;;;;;5129875;27;20416;-69
2023/05/20 09:27:58;;;;;;;6.40;5.80;;;18.60;99.90;;;;;;5130603;27;20420;-69
2023/05/20 09:30:24;;;;;;;8.07;6.10;;;18.90;99.90;;;;;;5112229;27;20464;-69
2023/05/20 09:32:58;;;;;;;7.50;6.80;;;19.50;99.90;;;;;;5131015;27;20660;-69
2023/05/20 09:35:25;;;;;;;10.27;6.30;;;19.80;99.90;;;;;;5111990;27;20512;-71
2023/05/20 09:37:55;;;;;;;13.87;8.07;;;19.70;99.90;;;;;;5130332;27;20453;-69
2023/05/20 09:40:30;;;;;;;10.53;7.23;;;19.80;99.90;;;;;;5130775;27;20410;-69
2023/05/20 09:43:03;;;;;;;15.37;9.20;;;19.80;99.90;;;;;;5111864;27;20440;-69
2023/05/20 09:45:29;;;;;;;14.93;9.57;;;19.50;99.90;;;;;;5130590;27;20982;-69
2023/05/20 09:47:56;;;;;;;6.97;6.27;;;19.30;99.90;;;;;;5130196;27;20442;-68
2023/05/20 09:50:24;;;;;;;7.30;6.60;;;19.50;99.90;;;;;;5131144;27;20418;-68
2023/05/20 09:52:51;;;;;;;9.07;6.47;;;19.50;99.90;;;;;;5139912;27;20446;-68
2023/05/20 09:55:18;;;;;;;8.73;6.00;;;19.50;99.90;;;;;;5140221;27;20478;-68
2023/05/20 09:57:45;;;;;;;9.17;7.07;;;19.40;99.90;;;;;;5141472;27;21006;-69
2023/05/20 10:00:14;;;;;;;7.30;6.60;;;19.70;99.90;;;;;;5138590;27;20411;-69
2023/05/20 10:02:50;;;;;;;5.83;5.20;;;20.00;99.90;;;;;;5142090;27;20430;-69
2023/05/20 10:05:29;;;;;;;6.87;5.47;;;20.40;99.90;;;;;;5115057;27;20537;-68
2023/05/20 10:08:04;;;;;;;7.80;5.80;;;21.00;99.90;;;;;;5129918;27;20438;-69
2023/05/20 10:11:07;;;;;;;10.57;5.50;;;21.30;99.90;;;;;;5130259;27;20419;-69
2023/05/20 10:13:44;;;;;;;7.67;6.40;;;20.70;99.90;;;;;;5129829;27;20410;-69
2023/05/20 10:16:32;;;;;;;7.60;5.73;;;20.50;99.90;;;;;;5129327;27;20494;-69
2023/05/20 10:19:04;;;;;;;24.27;9.03;;;20.60;99.90;;;;;;5129810;27;20969;-69
2023/05/20 10:21:31;;;;;;;7.83;4.93;;;21.40;99.90;;;;;;5130351;27;20411;-69
2023/05/20 10:24:09;;;;;;;6.77;6.10;;;21.90;99.90;;;;;;5130505;27;20769;-69
2023/05/20 10:26:41;;;;;;;9.43;6.63;;;22.30;99.90;;;;;;5095128;27;20487;-69
2023/05/20 10:29:17;;;;;;;6.00;5.33;;;22.50;99.90;;;;;;5130198;27;20414;-69
2023/05/20 10:31:53;;;;;;;7.10;5.40;;;22.40;99.60;;;;;;5130408;27;20417;-69
2023/05/20 10:34:20;;;;;;;6.07;5.47;;;22.40;99.90;;;;;;5130338;27;20461;-68
2023/05/20 10:36:57;;;;;;;5.63;5.13;;;22.40;98.80;;;;;;5129975;27;20434;-68
2023/05/20 10:39:28;;;;;;;5.67;5.17;;;22.40;99.90;;;;;;5112656;27;20416;-67
2023/05/20 10:42:06;;;;;;;5.67;5.03;;;22.60;99.90;;;;;;5130787;27;20440;-68
2023/05/20 10:44:44;;;;;;;7.13;5.43;;;22.90;99.90;;;;;;5111476;27;20419;-69
2023/05/20 10:47:10;;;;;;;6.37;5.77;;;22.90;99.50;;;;;;5130022;27;20441;-69
2023/05/20 10:49:44;;;;;;;5.53;5.03;;;22.90;99.20;;;;;;5130211;27;20509;-69
2023/05/20 10:52:10;;;;;;;7.70;5.20;;;22.90;99.90;;;;;;5111309;27;20773;-69
2023/05/20 10:54:42;;;;;;;5.80;5.20;;;23.20;99.00;;;;;;5129459;27;20508;-68
2023/05/20 10:57:08;;;;;;;6.33;5.73;;;23.30;98.30;;;;;;5129578;27;20415;-69
2023/05/20 10:59:35;;;;;;;6.90;5.40;;;23.40;99.30;;;;;;5129520;27;20410;-70
2023/05/20 11:02:02;;;;;;;10.10;5.53;;;23.20;99.20;;;;;;5129018;27;20413;-69
2023/05/20 11:04:29;;;;;;;6.87;6.17;;;22.80;99.70;;;;;;5128977;27;20411;-69
2023/05/20 11:06:55;;;;;;;5.67;5.17;;;22.60;99.60;;;;;;5128951;27;20442;-69
2023/05/20 11:09:21;;;;;;;7.20;6.47;;;22.60;99.90;;;;;;5110114;27;21014;-69
2023/05/20 11:11:48;;;;;;;13.60;5.63;;;22.40;99.10;;;;;;5128842;27;20468;-69
2023/05/20 11:14:15;;;;;;;7.70;5.13;;;22.30;99.90;;;;;;5110009;27;20260;-73
2023/05/20 11:16:41;;;;;;;6.27;5.47;;;22.40;99.90;;;;;;5110071;27;20438;-71
2023/05/20 11:19:08;;;;;;;5.50;4.80;;;22.30;99.90;;;;;;5128642;27;20784;-69
2023/05/20 11:21:33;;;;;;;7.87;5.77;;;22.40;99.90;;;;;;5128221;27;20500;-68
2023/05/20 11:23:59;;;;;;;5.13;4.73;;;22.90;99.90;;;;;;5128145;27;20507;-69
2023/05/20 11:26:25;;;;;;;8.90;4.87;;;23.10;99.90;;;;;;5128122;27;20298;-68
2023/05/20 11:28:51;;;;;;;6.37;5.33;;;23.30;99.80;;;;;;5128225;27;20410;-68
2023/05/20 11:31:17;;;;;;;5.40;4.97;;;23.20;99.90;;;;;;5109148;27;20266;-68
2023/05/20 11:33:43;;;;;;;7.27;4.77;;;23.00;98.60;;;;;;5128237;27;20413;-67
2023/05/20 11:36:10;;;;;;;5.53;5.03;;;22.90;98.70;;;;;;5127851;27;20473;-70
2023/05/20 11:38:36;;;;;;;5.40;4.90;;;22.80;99.50;;;;;;5127981;27;20213;-70
2023/05/20 11:41:01;;;;;;;6.30;5.30;;;22.60;98.60;;;;;;5109083;27;20423;-70
2023/05/20 11:43:27;;;;;;;7.60;5.20;;;22.20;99.60;;;;;;5128070;27;20412;-68
2023/05/20 11:45:55;;;;;;;6.80;4.87;;;22.30;99.90;;;;;;5128066;27;20864;-68
2023/05/20 11:48:21;;;;;;;7.70;5.60;;;22.40;99.80;;;;;;5127506;27;20178;-69
2023/05/20 11:50:47;;;;;;;7.00;5.70;;;22.30;99.90;;;;;;5127597;27;20422;-69
2023/05/20 11:53:18;;;;;;;5.43;4.93;;;22.10;99.90;;;;;;5127875;27;20181;-70
2023/05/20 11:55:51;;;;;;;7.33;5.60;;;22.10;99.90;;;;;;5127596;27;20800;-69
2023/05/20 11:58:25;;;;;;;5.07;4.30;;;22.00;99.90;;;;;;5109452;28;20472;-73
2023/05/20 12:00:50;;;;;;;6.53;5.50;;;22.00;99.90;;;;;;5128700;27;20875;-71
2023/05/20 12:03:16;;;;;;;10.67;4.83;;;22.10;99.90;;;;;;5109843;28;20411;-71
2023/05/20 12:05:42;;;;;;;5.57;4.70;;;22.20;99.90;;;;;;5128442;27;20541;-71
2023/05/20 12:08:08;;;;;;;8.00;4.37;;;22.00;98.60;;;;;;5109391;28;20446;-71
2023/05/20 12:10:36;;;;;;;5.60;5.10;;;22.10;99.90;;;;;;5128425;28;20516;-72
2023/05/20 12:13:02;;;;;;;6.97;4.27;;;22.10;99.90;;;;;;5127715;28;20416;-69
2023/05/20 12:15:28;;;;;;;5.50;4.80;;;22.10;99.90;;;;;;5091976;28;20919;-70
2023/05/20 12:17:54;;;;;;;5.40;4.90;;;22.10;99.90;;;;;;5127391;27;20437;-68
2023/05/20 12:20:23;;;;;;;5.10;4.57;;;22.30;99.90;;;;;;5127383;28;20885;-72
2023/05/20 12:22:50;;;;;;;5.47;4.00;;;22.90;99.90;;;;;;5127766;28;20177;-72
2023/05/20 12:25:17;;;;;;;7.20;4.70;;;23.60;99.80;;;;;;5127289;27;20957;-72
2023/05/20 12:27:47;;;;;;;5.33;4.10;;;24.00;96.40;;;;;;5109087;28;20477;-72
2023/05/20 12:30:15;;;;;;;6.50;4.57;;;24.40;98.00;;;;;;5127252;28;20898;-72
2023/05/20 12:32:42;;;;;;;7.90;4.63;;;24.50;96.40;;;;;;5108984;28;20476;-71
2023/05/20 12:35:08;;;;;;;18.63;5.77;;;24.60;96.90;;;;;;5127285;27;20484;-69
2023/05/20 12:37:35;;;;;;;6.50;4.33;;;24.70;96.30;;;;;;5127248;27;20450;-71
2023/05/20 12:40:00;;;;;;;4.40;4.00;;;24.70;97.70;;;;;;5127236;27;20410;-72
2023/05/20 12:42:26;;;;;;;7.93;4.70;;;24.40;96.20;;;;;;5127153;28;20439;-72